메인 페이지
METAR-TAF:

METAR-TAF

공항 :

헤라트 국제공항

헤라트, 아프가니스탄

위도: 34-13N, 경도: 062-13E, 고도: 964m

현재 날씨관측

예보는 41분 전, 21:55시(UTC)에 발표되었습니다.
무풍
온도 21°C
습도 40%
기압 1013 hPa
시정 10km 이상
1500m 미만 상공 구름 및 적란운 없음

METAR: OAHR 282155Z 00000KT CAVOK 21/07 Q1013 RMK OPEN A2992 BLU

시각: 03:06 (22:36 UTC)

예보

예보는 5 시간 36분 전, 17:00시(UTC)에 발표되었습니다.
예보 대상 시간: 28일 18시부터 29일 18시까지 (UTC)
여러 방향의 바람 3kt
시정 10km 이상
1500m 미만 상공 구름 및 적란운 없음
전환 중
28일 18시부터 28일 20시까지 (UTC)
북북동12kt
시정 10km 이상
1500m 미만 상공 구름 및 적란운 없음
전환 중
29일 05시부터 29일 07시까지 (UTC)
북북동18kt, 순간 최대 풍속 30kt

TAF: OAHR 281700Z 2818/2918 VRB03KT CAVOK BECMG 2818/2820 03012KT CAVOK BECMG 2905/2907 03018G30KT

4,000개 이상의 공항 관측 자료 및 예보 (METAR 및 TAF 보고).

지도상에서 검색 가능한 기상관측소가 노란 점과 빨간 점으로 표시되어 있습니다.

기상관측소 명을 보려면 표시 위로 마우스를 이동하세요.

날씨 관측과 예보를 보려면 클릭하세요.

지도 변경 : 확대하려면 엑스 표시가 있는 녹색 버튼, 축소하려면 빼기 표시가 있는 녹색 버튼, 다음 페이지의 지도를 보려면 녹색 화살표를 클릭하세요.


METAR-TAF: